createdAt,value
2018-07-11T00:00:07.364Z,8.00
2018-07-11T00:03:11.941Z,11.03
2018-07-11T00:06:17.885Z,10.97
2018-07-11T00:09:22.418Z,9.93
2018-07-11T00:12:26.836Z,11.13
2018-07-11T00:15:31.377Z,11.93
2018-07-11T00:18:35.941Z,9.40
2018-07-11T00:21:40.484Z,11.07
2018-07-11T00:24:45.089Z,10.27
2018-07-11T00:27:49.896Z,9.53
2018-07-11T00:30:54.646Z,11.33
2018-07-11T00:33:59.153Z,11.13
2018-07-11T00:37:04.032Z,9.07
2018-07-11T00:40:08.351Z,10.03
2018-07-11T00:43:12.876Z,14.77
2018-07-11T00:46:18.497Z,10.73
2018-07-11T00:49:23.017Z,11.27
2018-07-11T00:52:27.664Z,12.77
2018-07-11T00:55:32.180Z,12.47
2018-07-11T00:58:40.057Z,9.30
2018-07-11T01:01:44.633Z,11.53
2018-07-11T01:04:49.651Z,13.20
2018-07-11T01:07:54.480Z,8.97
2018-07-11T01:11:01.979Z,9.70
2018-07-11T01:14:06.637Z,11.17
2018-07-11T01:17:16.619Z,9.77
2018-07-11T01:20:21.429Z,9.53
2018-07-11T01:23:26.018Z,10.20
2018-07-11T01:26:32.041Z,11.40
2018-07-11T01:29:36.485Z,11.03
2018-07-11T01:32:41.626Z,11.63
2018-07-11T01:35:46.213Z,10.00
2018-07-11T01:38:51.138Z,9.33
2018-07-11T01:41:55.827Z,10.53
2018-07-11T01:45:00.697Z,10.93
2018-07-11T01:48:05.577Z,8.47
2018-07-11T01:51:10.473Z,9.43
2018-07-11T01:54:15.486Z,9.97
2018-07-11T01:57:20.248Z,13.43
2018-07-11T02:00:25.881Z,8.67
2018-07-11T02:03:30.615Z,8.87
2018-07-11T02:06:35.820Z,8.27
2018-07-11T02:09:41.005Z,10.33
2018-07-11T02:12:45.684Z,8.37
2018-07-11T02:15:51.329Z,10.40
2018-07-11T02:18:55.926Z,8.20
2018-07-11T02:22:00.490Z,10.37
2018-07-11T02:25:05.056Z,8.87
2018-07-11T02:28:09.575Z,9.97
2018-07-11T02:31:14.256Z,9.03
2018-07-11T02:34:22.745Z,10.53
2018-07-11T02:37:27.213Z,9.67
2018-07-11T02:40:31.818Z,10.03
2018-07-11T02:43:36.608Z,10.80
2018-07-11T02:46:46.629Z,8.80
2018-07-11T02:49:51.031Z,9.80
2018-07-11T02:52:55.569Z,12.03
2018-07-11T02:55:59.925Z,11.07
2018-07-11T02:59:04.744Z,11.57
2018-07-11T03:02:09.682Z,13.17
2018-07-11T03:05:14.288Z,9.87
2018-07-11T03:08:19.444Z,14.97
2018-07-11T03:11:23.909Z,12.87
2018-07-11T03:14:28.667Z,14.00
2018-07-11T03:17:33.955Z,9.70
2018-07-11T03:20:44.232Z,10.53
2018-07-11T03:23:48.736Z,11.37
2018-07-11T03:26:53.985Z,13.97
2018-07-11T03:29:58.798Z,11.03
2018-07-11T03:33:03.726Z,12.23
2018-07-11T03:36:08.954Z,11.20
2018-07-11T03:39:13.424Z,11.43
2018-07-11T03:42:18.118Z,10.27
2018-07-11T03:45:22.769Z,13.90
2018-07-11T03:48:27.460Z,19.60
2018-07-11T03:51:31.877Z,14.23
2018-07-11T03:54:36.507Z,11.17
2018-07-11T03:57:42.244Z,12.30
2018-07-11T04:00:46.898Z,10.70
2018-07-11T04:03:51.948Z,11.33
2018-07-11T04:06:56.828Z,10.33
2018-07-11T04:10:01.327Z,14.90
2018-07-11T04:13:08.717Z,10.40
2018-07-11T04:16:13.338Z,10.47
2018-07-11T04:19:17.938Z,10.33
2018-07-11T04:22:22.268Z,10.23
2018-07-11T04:25:26.647Z,11.60
2018-07-11T04:28:31.456Z,13.47
2018-07-11T04:31:36.169Z,14.57
2018-07-11T04:34:40.709Z,10.50
2018-07-11T04:37:45.423Z,10.83
2018-07-11T04:40:50.992Z,16.10
2018-07-11T04:43:55.617Z,11.23
2018-07-11T04:47:00.079Z,9.83
2018-07-11T04:50:04.755Z,15.20
2018-07-11T04:53:11.204Z,9.43
2018-07-11T04:56:16.980Z,9.47
2018-07-11T04:59:21.604Z,10.13
2018-07-11T05:02:26.330Z,11.23
2018-07-11T05:05:31.020Z,9.97
2018-07-11T05:08:35.678Z,9.47
2018-07-11T05:11:40.478Z,9.53
2018-07-11T05:14:45.212Z,11.53
2018-07-11T05:17:49.732Z,10.30
2018-07-11T05:20:54.763Z,11.23
2018-07-11T05:24:01.487Z,11.77
2018-07-11T05:27:17.133Z,11.03
2018-07-11T05:30:23.642Z,10.50
2018-07-11T05:33:28.406Z,10.13
2018-07-11T05:36:33.071Z,9.73
2018-07-11T05:39:37.785Z,13.73
2018-07-11T05:42:42.749Z,10.13
2018-07-11T05:45:47.634Z,8.93
2018-07-11T05:48:52.656Z,15.20
2018-07-11T05:51:57.391Z,12.23
2018-07-11T05:55:02.303Z,9.43
2018-07-11T05:58:06.824Z,9.43
2018-07-11T06:01:11.528Z,9.70
2018-07-11T06:04:16.761Z,10.13
2018-07-11T06:07:21.537Z,7.80
2018-07-11T06:10:49.717Z,9.03
2018-07-11T06:17:22.904Z,7.43
2018-07-11T06:20:29.628Z,8.27
2018-07-11T06:23:38.011Z,9.70
2018-07-11T06:26:44.966Z,11.57
2018-07-11T06:29:51.708Z,9.20
2018-07-11T06:32:58.477Z,7.03
2018-07-11T06:36:04.952Z,7.50
2018-07-11T06:43:54.769Z,7.93
2018-07-11T06:47:03.470Z,8.10
2018-07-11T06:50:08.525Z,9.03
2018-07-11T06:53:13.396Z,9.47
2018-07-11T06:56:18.495Z,11.33
2018-07-11T06:59:22.762Z,6.73
2018-07-11T07:02:28.952Z,8.60
2018-07-11T07:05:34.040Z,7.57
2018-07-11T07:08:39.328Z,7.10
2018-07-11T07:11:44.212Z,5.40
2018-07-11T07:14:48.837Z,6.17
2018-07-11T07:30:14.690Z,7.03
2018-07-11T07:33:32.488Z,5.60
2018-07-11T07:37:05.225Z,5.63
2018-07-11T07:40:13.065Z,6.53
2018-07-11T07:43:20.336Z,7.67
2018-07-11T07:46:25.787Z,8.80
2018-07-11T07:49:32.339Z,7.17
2018-07-11T07:52:38.489Z,5.37
2018-07-11T07:55:43.346Z,6.20
2018-07-11T07:58:48.277Z,5.47
2018-07-11T08:01:53.250Z,8.37
2018-07-11T08:04:59.322Z,6.47
2018-07-11T08:08:05.273Z,8.23
2018-07-11T08:11:32.563Z,6.57
2018-07-11T08:14:52.470Z,6.23
2018-07-11T08:17:58.827Z,8.97
2018-07-11T08:21:10.569Z,8.27
2018-07-11T08:24:26.326Z,8.30
2018-07-11T08:27:42.372Z,5.73
2018-07-11T08:31:07.041Z,5.87
2018-07-11T08:34:21.678Z,8.10
2018-07-11T08:40:33.459Z,5.50
2018-07-11T08:46:17.837Z,9.67
2018-07-11T08:49:56.018Z,7.97
2018-07-11T08:54:16.750Z,7.60
2018-07-11T08:57:36.991Z,5.17
2018-07-11T09:01:09.227Z,7.43
2018-07-11T09:04:39.734Z,5.60
2018-07-11T09:07:54.269Z,6.33
2018-07-11T09:11:09.115Z,7.30
2018-07-11T09:15:29.630Z,4.30
2018-07-11T09:23:01.899Z,5.87
2018-07-11T09:26:09.401Z,6.43
2018-07-11T09:29:14.776Z,5.53
2018-07-11T09:32:19.593Z,7.70
2018-07-11T09:37:10.709Z,5.60
2018-07-11T09:46:10.869Z,5.97
2018-07-11T09:52:51.744Z,7.33
2018-07-11T09:56:00.523Z,7.47
2018-07-11T09:59:07.096Z,8.93
2018-07-11T10:02:17.225Z,8.43
2018-07-11T10:06:05.628Z,8.00
2018-07-11T10:13:06.823Z,5.23
2018-07-11T10:16:24.375Z,8.23
2018-07-11T10:19:37.548Z,7.67
2018-07-11T10:22:49.284Z,5.43
2018-07-11T10:57:41.821Z,5.73
2018-07-11T11:01:05.697Z,5.77
2018-07-11T11:04:03.637Z,7.80
2018-07-11T11:07:19.156Z,7.00
2018-07-11T11:10:26.769Z,6.50
2018-07-11T11:13:35.773Z,8.67
2018-07-11T11:56:55.957Z,4.90
2018-07-11T12:00:00.873Z,4.90
2018-07-11T12:03:05.906Z,5.53
2018-07-11T12:06:10.984Z,8.23
2018-07-11T12:09:17.384Z,6.10
2018-07-11T12:12:22.259Z,6.10
2018-07-11T12:15:26.951Z,4.63
2018-07-11T12:18:32.402Z,3.40
2018-07-11T12:21:37.306Z,4.97
2018-07-11T12:28:05.733Z,6.90
2018-07-11T12:31:11.787Z,4.33
2018-07-11T12:34:53.897Z,5.70
2018-07-11T12:38:12.707Z,4.00
2018-07-11T12:41:52.779Z,5.90
2018-07-11T12:45:00.425Z,4.93
2018-07-11T12:48:11.029Z,3.77
2018-07-11T12:51:19.366Z,4.57
2018-07-11T12:54:27.750Z,5.67
2018-07-11T12:57:45.505Z,4.10
2018-07-11T13:00:54.881Z,3.37
2018-07-11T13:04:00.171Z,5.57
2018-07-11T13:07:12.006Z,2.70
2018-07-11T13:10:18.703Z,4.43
2018-07-11T13:13:26.008Z,4.30
2018-07-11T13:16:32.678Z,4.77
2018-07-11T13:19:39.071Z,10.37
2018-07-11T13:22:44.074Z,2.90
2018-07-11T13:25:59.010Z,4.80
2018-07-11T13:29:05.882Z,5.60
2018-07-11T13:32:21.496Z,4.67
2018-07-11T13:35:50.519Z,2.30
2018-07-11T13:38:56.624Z,3.20
2018-07-11T13:42:03.619Z,2.20
2018-07-11T13:45:20.152Z,6.60
2018-07-11T13:48:32.983Z,6.37
2018-07-11T13:52:08.153Z,3.33
2018-07-11T14:02:56.005Z,2.83
2018-07-11T16:22:45.222Z,4.07
2018-07-11T16:26:10.139Z,4.63
2018-07-11T16:32:34.892Z,7.37
2018-07-11T16:35:41.369Z,7.27
2018-07-11T16:41:08.845Z,2.50
2018-07-11T16:44:28.901Z,3.00
2018-07-11T16:47:34.542Z,3.60
2018-07-11T16:50:40.432Z,2.93
2018-07-11T16:53:45.770Z,4.53
2018-07-11T16:56:50.869Z,2.73
2018-07-11T17:00:06.844Z,3.17
2018-07-11T17:03:13.893Z,3.10
2018-07-11T17:06:18.895Z,7.50
2018-07-11T17:09:25.265Z,6.37
2018-07-11T17:12:30.188Z,5.50
2018-07-11T17:15:35.002Z,5.03
2018-07-11T17:18:45.435Z,3.77
2018-07-11T17:21:50.219Z,4.83
2018-07-11T17:24:54.697Z,6.43
2018-07-11T17:28:02.332Z,4.80
2018-07-11T17:31:07.100Z,5.53
2018-07-11T17:34:11.896Z,6.60
2018-07-11T17:37:21.011Z,7.23
2018-07-11T17:40:26.269Z,5.30
2018-07-11T17:43:37.081Z,5.23
2018-07-11T17:46:41.506Z,4.47
2018-07-11T17:49:54.508Z,5.73
2018-07-11T17:53:12.977Z,5.13
2018-07-11T17:56:22.812Z,5.83
2018-07-11T17:59:36.802Z,8.10
2018-07-11T18:02:48.196Z,5.50
2018-07-11T18:06:04.687Z,7.07
2018-07-11T18:09:11.083Z,7.07
2018-07-11T18:12:27.422Z,4.73
2018-07-11T18:15:37.322Z,11.87
2018-07-11T18:19:48.809Z,6.97
2018-07-11T18:23:00.082Z,5.23
2018-07-11T18:26:16.669Z,6.27
2018-07-11T18:29:29.652Z,6.70
2018-07-11T18:33:41.750Z,5.10
2018-07-11T18:37:00.064Z,7.23
2018-07-11T18:40:11.485Z,7.83
2018-07-11T18:43:32.582Z,6.93
2018-07-11T18:46:46.479Z,5.13
2018-07-11T18:52:05.721Z,7.03
2018-07-11T18:55:44.100Z,6.73
2018-07-11T18:58:57.829Z,8.17
2018-07-11T19:02:41.208Z,9.90
2018-07-11T19:05:56.065Z,7.87
2018-07-11T19:09:07.726Z,5.93
2018-07-11T19:12:24.888Z,7.83
2018-07-11T19:15:37.682Z,9.03
2018-07-11T19:18:56.451Z,6.23
2018-07-11T19:22:09.423Z,6.00
2018-07-11T19:25:27.119Z,7.17
2018-07-11T19:29:38.552Z,8.13
2018-07-11T19:33:03.184Z,9.03
2018-07-11T19:37:17.422Z,6.13
2018-07-11T19:41:08.443Z,8.83
2018-07-11T19:44:20.008Z,7.43
2018-07-11T19:50:11.358Z,7.33
2018-07-11T19:53:30.354Z,6.67
2018-07-11T19:56:41.520Z,6.20
2018-07-11T19:59:46.326Z,6.90
2018-07-11T20:02:51.057Z,9.60
2018-07-11T20:05:55.527Z,8.37
2018-07-11T20:09:00.262Z,8.30
2018-07-11T20:12:05.423Z,9.43
2018-07-11T20:15:10.852Z,7.97
2018-07-11T20:18:15.552Z,7.37
2018-07-11T20:21:21.053Z,6.93
2018-07-11T20:24:26.047Z,8.40
2018-07-11T20:27:30.852Z,7.73
2018-07-11T20:30:48.766Z,8.93
2018-07-11T20:33:53.435Z,8.60
2018-07-11T20:36:58.424Z,8.27
2018-07-11T20:40:03.452Z,8.97
2018-07-11T20:43:08.232Z,9.80
2018-07-11T20:46:13.326Z,9.63
2018-07-11T20:49:23.583Z,11.07
2018-07-11T20:52:28.188Z,8.87
2018-07-11T20:55:32.882Z,9.03
2018-07-11T20:58:48.799Z,8.90
2018-07-11T21:02:04.522Z,9.20
2018-07-11T21:05:20.023Z,11.73
2018-07-11T21:09:45.320Z,12.57
2018-07-11T21:13:01.510Z,11.83
2018-07-11T21:16:19.083Z,10.03
2018-07-11T21:19:23.558Z,9.90
2018-07-11T21:22:28.301Z,11.37
2018-07-11T21:25:33.378Z,11.83
2018-07-11T21:28:38.188Z,10.33
2018-07-11T21:31:42.715Z,12.23
2018-07-11T21:34:47.483Z,12.23
2018-07-11T21:37:52.122Z,10.20
2018-07-11T21:40:56.881Z,10.50
2018-07-11T21:44:01.753Z,12.37
2018-07-11T21:47:06.781Z,12.53
2018-07-11T21:50:11.359Z,11.13
2018-07-11T21:53:16.357Z,11.97
2018-07-11T21:56:21.391Z,11.93
2018-07-11T21:59:26.299Z,13.27
2018-07-11T22:02:31.413Z,12.63
2018-07-11T22:05:36.239Z,11.47
2018-07-11T22:08:40.799Z,13.37
2018-07-11T22:11:45.452Z,12.40
2018-07-11T22:14:50.216Z,12.80
2018-07-11T22:18:06.207Z,11.77
2018-07-11T22:21:10.358Z,12.03
2018-07-11T22:24:13.503Z,13.73
2018-07-11T22:27:16.789Z,12.23
2018-07-11T22:30:20.096Z,12.50
2018-07-11T22:33:23.428Z,14.23
2018-07-11T22:36:26.733Z,14.03
2018-07-11T22:39:30.045Z,13.83
2018-07-11T22:42:33.610Z,14.57
2018-07-11T22:45:36.918Z,12.60
2018-07-11T22:48:40.488Z,16.07
2018-07-11T22:51:43.787Z,15.43
2018-07-11T22:54:47.065Z,15.03
2018-07-11T22:57:50.604Z,14.97
2018-07-11T23:00:53.784Z,13.47
2018-07-11T23:03:57.031Z,14.43
2018-07-11T23:07:00.488Z,14.80
2018-07-11T23:10:03.866Z,20.10
2018-07-11T23:13:07.314Z,14.27
2018-07-11T23:16:10.515Z,13.40
2018-07-11T23:19:14.787Z,13.37
2018-07-11T23:22:18.201Z,14.57
2018-07-11T23:25:21.599Z,14.53
2018-07-11T23:28:24.625Z,14.57
2018-07-11T23:31:28.218Z,16.03
2018-07-11T23:34:31.795Z,15.33
2018-07-11T23:37:35.204Z,14.93
2018-07-11T23:40:38.644Z,11.83
2018-07-11T23:43:41.880Z,14.87
2018-07-11T23:46:45.150Z,15.73
2018-07-11T23:49:48.444Z,17.50
2018-07-11T23:52:51.762Z,18.60
2018-07-11T23:55:55.116Z,14.20
2018-07-11T23:58:58.273Z,16.57
